createdAt,value
2022-08-26T00:00:57.265Z,22.30
2022-08-26T00:03:26.051Z,22.32
2022-08-26T00:05:56.868Z,22.31
2022-08-26T00:08:25.795Z,22.30
2022-08-26T00:10:54.320Z,22.27
2022-08-26T00:13:23.462Z,22.24
2022-08-26T00:15:53.012Z,22.21
2022-08-26T00:18:22.855Z,22.20
2022-08-26T00:20:52.184Z,22.17
2022-08-26T00:23:24.082Z,22.13
2022-08-26T00:25:54.753Z,22.08
2022-08-26T00:28:25.870Z,22.10
2022-08-26T00:30:55.358Z,22.10
2022-08-26T00:33:24.754Z,22.10
2022-08-26T00:35:53.536Z,22.05
2022-08-26T00:38:22.970Z,22.03
2022-08-26T00:40:55.922Z,22.01
2022-08-26T00:43:26.148Z,22.01
2022-08-26T00:46:01.442Z,21.99
2022-08-26T00:48:34.255Z,21.99
2022-08-26T00:51:15.573Z,21.97
2022-08-26T00:53:55.815Z,21.98
2022-08-26T00:56:30.390Z,21.98
2022-08-26T00:59:03.015Z,21.94
2022-08-26T01:01:33.545Z,21.89
2022-08-26T01:04:02.389Z,21.88
2022-08-26T01:06:31.745Z,21.86
2022-08-26T01:09:01.037Z,21.84
2022-08-26T01:11:29.866Z,21.83
2022-08-26T01:14:01.663Z,21.80
2022-08-26T01:16:33.666Z,21.78
2022-08-26T01:19:18.622Z,21.76
2022-08-26T01:21:59.718Z,21.74
2022-08-26T01:24:30.309Z,21.73
2022-08-26T01:27:03.684Z,21.73
2022-08-26T01:29:35.804Z,21.70
2022-08-26T01:32:07.961Z,21.65
2022-08-26T01:34:40.177Z,21.60
2022-08-26T01:37:22.127Z,21.53
2022-08-26T01:39:54.107Z,21.47
2022-08-26T01:42:25.075Z,21.43
2022-08-26T01:45:17.517Z,21.44
2022-08-26T01:47:49.010Z,21.46
2022-08-26T01:50:27.700Z,21.47
2022-08-26T01:53:00.402Z,21.49
2022-08-26T01:55:33.176Z,21.50
2022-08-26T01:58:06.868Z,21.48
2022-08-26T02:00:36.598Z,21.45
2022-08-26T02:03:17.226Z,21.42
2022-08-26T02:05:56.716Z,21.39
2022-08-26T02:08:33.051Z,21.36
2022-08-26T02:11:02.088Z,21.34
2022-08-26T02:13:33.560Z,21.34
2022-08-26T02:16:04.586Z,21.36
2022-08-26T02:18:37.645Z,21.36
2022-08-26T02:21:10.278Z,21.36
2022-08-26T02:23:40.240Z,21.33
2022-08-26T02:26:19.453Z,21.29
2022-08-26T02:29:00.631Z,21.27
2022-08-26T02:31:29.919Z,21.30
2022-08-26T02:34:22.937Z,21.30
2022-08-26T02:36:51.983Z,21.29
2022-08-26T02:39:22.390Z,21.26
2022-08-26T02:41:51.303Z,21.26
2022-08-26T02:44:20.752Z,21.27
2022-08-26T02:46:49.681Z,21.24
2022-08-26T02:49:18.548Z,21.20
2022-08-26T02:51:48.936Z,21.18
2022-08-26T02:54:19.191Z,21.17
2022-08-26T02:56:47.741Z,21.17
2022-08-26T02:59:16.332Z,21.16
2022-08-26T03:01:45.617Z,21.13
2022-08-26T03:04:14.173Z,21.10
2022-08-26T03:06:44.179Z,21.03
2022-08-26T03:09:21.767Z,20.91
2022-08-26T03:11:53.412Z,20.80
2022-08-26T03:14:24.268Z,20.75
2022-08-26T03:16:55.029Z,20.80
2022-08-26T03:19:25.965Z,20.88
2022-08-26T03:21:57.993Z,20.90
2022-08-26T03:24:27.152Z,20.95
2022-08-26T03:26:55.756Z,20.99
2022-08-26T03:29:43.754Z,20.92
2022-08-26T03:32:12.565Z,20.83
2022-08-26T03:34:41.025Z,20.78
2022-08-26T03:37:09.725Z,20.78
2022-08-26T03:39:38.674Z,20.81
2022-08-26T03:42:09.520Z,20.85
2022-08-26T03:44:42.121Z,20.86
2022-08-26T03:47:12.274Z,20.85
2022-08-26T03:49:42.498Z,20.86
2022-08-26T03:52:11.128Z,20.85
2022-08-26T03:54:41.402Z,20.86
2022-08-26T03:57:12.384Z,20.83
2022-08-26T03:59:41.440Z,20.81
2022-08-26T04:02:11.567Z,20.82
2022-08-26T04:04:41.015Z,20.82
2022-08-26T04:07:09.864Z,20.84
2022-08-26T04:09:38.805Z,20.83
2022-08-26T04:12:09.935Z,20.79
2022-08-26T04:14:39.316Z,20.76
2022-08-26T04:17:07.964Z,20.75
2022-08-26T04:19:37.025Z,20.75
2022-08-26T04:22:05.966Z,20.75
2022-08-26T04:24:36.141Z,20.76
2022-08-26T04:27:05.436Z,20.75
2022-08-26T04:29:39.478Z,20.71
2022-08-26T04:32:09.481Z,20.71
2022-08-26T04:34:38.896Z,20.72
2022-08-26T04:37:08.949Z,20.72
2022-08-26T04:39:38.038Z,20.78
2022-08-26T04:42:07.093Z,20.86
2022-08-26T04:44:36.836Z,20.93
2022-08-26T04:47:06.420Z,20.97
2022-08-26T04:49:35.627Z,21.00
2022-08-26T04:52:05.596Z,21.03
2022-08-26T04:54:34.614Z,21.09
2022-08-26T04:57:03.535Z,21.20
2022-08-26T04:59:34.086Z,21.30
2022-08-26T05:02:07.591Z,21.35
2022-08-26T05:04:37.363Z,21.47
2022-08-26T05:07:08.197Z,21.62
2022-08-26T05:09:41.255Z,21.73
2022-08-26T05:12:10.080Z,21.82
2022-08-26T05:14:41.855Z,21.94
2022-08-26T05:17:15.096Z,22.10
2022-08-26T05:19:44.532Z,22.24
2022-08-26T05:22:13.737Z,22.36
2022-08-26T05:24:43.959Z,22.47
2022-08-26T05:27:14.204Z,22.59
2022-08-26T05:29:42.766Z,22.70
2022-08-26T05:32:12.762Z,22.81
2022-08-26T05:34:42.865Z,22.92
2022-08-26T05:37:13.753Z,23.47
2022-08-26T05:39:43.537Z,24.04
2022-08-26T05:42:20.916Z,24.32
2022-08-26T05:44:55.981Z,24.74
2022-08-26T05:47:26.923Z,25.37
2022-08-26T05:49:56.061Z,25.95
2022-08-26T05:52:25.965Z,26.60
2022-08-26T05:54:54.951Z,27.21
2022-08-26T05:57:23.977Z,27.72
2022-08-26T05:59:52.851Z,28.34
2022-08-26T06:02:21.742Z,29.00
2022-08-26T06:04:50.317Z,29.53
2022-08-26T06:07:41.050Z,30.08
2022-08-26T06:10:32.526Z,30.62
2022-08-26T06:13:11.805Z,31.12
2022-08-26T06:15:46.104Z,31.56
2022-08-26T06:18:17.634Z,31.89
2022-08-26T06:20:49.545Z,32.36
2022-08-26T06:23:47.969Z,32.72
2022-08-26T06:26:17.354Z,33.01
2022-08-26T06:28:46.225Z,33.37
2022-08-26T06:31:16.523Z,33.81
2022-08-26T06:33:45.591Z,34.07
2022-08-26T06:36:22.758Z,34.26
2022-08-26T06:38:54.174Z,34.35
2022-08-26T06:41:24.137Z,34.39
2022-08-26T06:43:53.787Z,34.60
2022-08-26T06:46:22.664Z,34.84
2022-08-26T06:48:51.472Z,35.06
2022-08-26T06:51:23.730Z,35.19
2022-08-26T06:53:55.207Z,35.23
2022-08-26T06:56:27.512Z,35.27
2022-08-26T06:58:56.234Z,35.37
2022-08-26T07:01:29.170Z,35.39
2022-08-26T07:04:05.507Z,35.43
2022-08-26T07:06:41.910Z,35.56
2022-08-26T07:09:12.046Z,35.74
2022-08-26T07:11:42.883Z,35.75
2022-08-26T07:14:12.138Z,35.76
2022-08-26T07:16:41.904Z,35.83
2022-08-26T07:19:11.717Z,36.03
2022-08-26T07:21:41.925Z,36.24
2022-08-26T07:24:11.410Z,36.47
2022-08-26T07:26:43.042Z,36.43
2022-08-26T07:29:12.985Z,36.26
2022-08-26T07:31:42.686Z,36.07
2022-08-26T07:34:14.309Z,36.07
2022-08-26T07:36:43.121Z,36.16
2022-08-26T07:39:11.979Z,36.21
2022-08-26T07:41:41.519Z,36.28
2022-08-26T07:44:11.827Z,36.36
2022-08-26T07:46:41.523Z,36.46
2022-08-26T07:49:13.811Z,36.52
2022-08-26T07:51:43.551Z,36.31
2022-08-26T07:54:26.932Z,35.96
2022-08-26T07:57:17.401Z,35.66
2022-08-26T07:59:48.368Z,35.82
2022-08-26T08:02:18.026Z,35.81
2022-08-26T08:04:47.574Z,35.80
2022-08-26T08:07:17.488Z,35.89
2022-08-26T08:09:49.787Z,35.98
2022-08-26T08:12:19.802Z,35.97
2022-08-26T08:14:53.184Z,36.01
2022-08-26T08:17:28.533Z,35.97
2022-08-26T08:19:57.730Z,35.77
2022-08-26T08:22:27.284Z,35.58
2022-08-26T08:24:56.053Z,35.31
2022-08-26T08:27:26.148Z,35.10
2022-08-26T08:29:55.419Z,34.88
2022-08-26T08:32:24.388Z,34.79
2022-08-26T08:34:53.183Z,34.44
2022-08-26T08:37:23.319Z,34.03
2022-08-26T08:39:52.758Z,33.69
2022-08-26T08:42:58.884Z,33.26
2022-08-26T08:45:37.085Z,32.99
2022-08-26T08:48:15.726Z,32.79
2022-08-26T08:50:49.520Z,32.58
2022-08-26T08:53:36.285Z,32.44
2022-08-26T08:56:38.248Z,32.25
2022-08-26T08:59:17.189Z,32.03
2022-08-26T09:02:03.615Z,31.93
2022-08-26T09:04:47.518Z,31.84
2022-08-26T09:07:21.028Z,31.71
2022-08-26T09:10:18.034Z,31.54
2022-08-26T09:12:48.925Z,31.48
2022-08-26T09:15:37.139Z,31.38
2022-08-26T09:18:10.380Z,31.33
2022-08-26T09:21:08.726Z,31.20
2022-08-26T09:23:43.038Z,31.20
2022-08-26T09:26:24.762Z,31.42
2022-08-26T09:29:04.859Z,31.73
2022-08-26T09:31:37.343Z,31.94
2022-08-26T09:34:26.257Z,32.11
2022-08-26T09:37:00.905Z,32.25
2022-08-26T09:39:39.629Z,32.43
2022-08-26T09:42:23.069Z,32.52
2022-08-26T09:45:00.136Z,32.13
2022-08-26T09:47:34.549Z,32.00
2022-08-26T09:50:27.076Z,32.04
2022-08-26T09:53:12.862Z,31.94
2022-08-26T09:55:46.080Z,31.74
2022-08-26T09:58:32.145Z,31.71
2022-08-26T10:01:06.369Z,31.80
2022-08-26T10:03:39.254Z,31.67
2022-08-26T10:06:17.252Z,31.33
2022-08-26T10:08:54.145Z,31.08
2022-08-26T10:11:31.191Z,30.79
2022-08-26T10:17:25.412Z,30.45
2022-08-26T10:20:22.749Z,30.36
2022-08-26T10:23:05.913Z,30.21
2022-08-26T10:25:43.431Z,30.07
2022-08-26T10:28:26.267Z,29.92
2022-08-26T10:31:16.843Z,29.89
2022-08-26T10:33:49.649Z,29.79
2022-08-26T10:36:58.442Z,29.58
2022-08-26T10:39:57.107Z,29.33
2022-08-26T10:42:29.471Z,29.29
2022-08-26T10:45:11.781Z,29.22
2022-08-26T10:47:44.074Z,29.12
2022-08-26T10:50:12.916Z,29.05
2022-08-26T10:52:56.638Z,29.03
2022-08-26T10:55:51.642Z,28.95
2022-08-26T10:58:30.868Z,28.84
2022-08-26T11:01:43.553Z,28.80
2022-08-26T11:04:35.902Z,28.75
2022-08-26T11:07:32.900Z,28.77
2022-08-26T11:10:17.491Z,28.80
2022-08-26T11:12:49.254Z,28.81
2022-08-26T11:15:24.478Z,28.82
2022-08-26T11:17:55.711Z,28.86
2022-08-26T11:20:46.212Z,28.90
2022-08-26T11:23:21.256Z,28.92
2022-08-26T11:26:01.917Z,28.91
2022-08-26T11:28:39.472Z,28.89
2022-08-26T11:31:33.153Z,28.93
2022-08-26T11:34:10.879Z,28.98
2022-08-26T11:36:45.762Z,29.01
2022-08-26T11:39:20.636Z,29.00
2022-08-26T11:41:52.809Z,28.99
2022-08-26T11:44:27.614Z,28.94
2022-08-26T11:46:59.965Z,28.96
2022-08-26T11:49:32.294Z,29.01
2022-08-26T11:52:13.764Z,29.05
2022-08-26T11:55:00.818Z,29.07
2022-08-26T11:57:33.291Z,29.02
2022-08-26T12:00:03.004Z,28.94
2022-08-26T12:02:34.138Z,28.92
2022-08-26T12:05:03.632Z,28.97
2022-08-26T12:07:32.939Z,29.00
2022-08-26T12:10:05.407Z,29.02
2022-08-26T12:12:39.014Z,29.00
2022-08-26T12:15:16.109Z,29.01
2022-08-26T12:17:50.498Z,29.04
2022-08-26T12:20:48.984Z,29.05
2022-08-26T12:23:37.150Z,29.05
2022-08-26T12:26:09.881Z,29.11
2022-08-26T12:28:46.995Z,29.12
2022-08-26T12:31:43.742Z,29.06
2022-08-26T12:34:17.855Z,29.04
2022-08-26T12:36:55.223Z,29.05
2022-08-26T12:39:36.008Z,29.09
2022-08-26T12:42:17.106Z,29.13
2022-08-26T12:44:59.108Z,29.13
2022-08-26T12:47:41.944Z,29.13
2022-08-26T12:50:33.103Z,29.13
2022-08-26T12:53:06.682Z,29.13
2022-08-26T12:55:54.321Z,29.14
2022-08-26T12:58:32.067Z,29.17
2022-08-26T13:01:01.158Z,29.17
2022-08-26T13:03:29.834Z,29.18
2022-08-26T13:06:15.514Z,29.20
2022-08-26T13:08:49.078Z,29.24
2022-08-26T13:11:21.140Z,29.23
2022-08-26T13:13:53.522Z,29.22
2022-08-26T13:16:24.670Z,29.18
2022-08-26T13:19:02.388Z,29.14
2022-08-26T13:21:55.912Z,29.12
2022-08-26T13:24:32.838Z,29.09
2022-08-26T13:27:01.991Z,29.10
2022-08-26T13:29:30.910Z,29.11
2022-08-26T13:32:00.337Z,29.12
2022-08-26T13:34:30.730Z,29.14
2022-08-26T13:36:59.879Z,29.12
2022-08-26T13:39:29.033Z,29.11
2022-08-26T13:41:58.883Z,29.11
2022-08-26T13:44:28.047Z,29.14
2022-08-26T13:46:56.802Z,29.17
2022-08-26T13:49:26.432Z,29.21
2022-08-26T13:51:56.309Z,29.24
2022-08-26T13:54:25.122Z,29.27
2022-08-26T13:56:53.809Z,29.26
2022-08-26T13:59:22.883Z,29.22
2022-08-26T14:01:52.185Z,29.20
2022-08-26T14:04:22.469Z,29.16
2022-08-26T14:06:57.047Z,29.13
2022-08-26T14:09:26.090Z,29.13
2022-08-26T14:11:55.312Z,29.16
2022-08-26T14:14:24.136Z,29.16
2022-08-26T14:17:00.202Z,29.16
2022-08-26T14:19:30.532Z,29.18
2022-08-26T14:22:01.269Z,29.18
2022-08-26T14:24:30.276Z,29.16
2022-08-26T14:26:59.034Z,29.15
2022-08-26T14:29:28.751Z,29.13
2022-08-26T14:32:00.076Z,29.11
2022-08-26T14:34:28.976Z,29.12
2022-08-26T14:36:57.660Z,29.13
2022-08-26T14:39:37.496Z,29.12
2022-08-26T14:42:07.756Z,29.10
2022-08-26T14:44:37.645Z,29.07
2022-08-26T14:47:07.112Z,29.06
2022-08-26T14:49:36.879Z,29.05
2022-08-26T14:52:05.815Z,29.02
2022-08-26T14:54:34.526Z,29.00
2022-08-26T14:57:10.072Z,28.98
2022-08-26T14:59:45.503Z,28.97
2022-08-26T15:02:22.291Z,28.98
2022-08-26T15:05:03.099Z,28.99
2022-08-26T15:07:32.189Z,29.00
2022-08-26T15:10:01.474Z,29.00
2022-08-26T15:12:30.123Z,29.01
2022-08-26T15:14:59.381Z,29.02
2022-08-26T15:17:28.903Z,29.02
2022-08-26T15:19:57.945Z,29.00
2022-08-26T15:22:29.461Z,28.99
2022-08-26T15:24:59.138Z,28.98
2022-08-26T15:27:30.167Z,28.98
2022-08-26T15:29:59.176Z,28.97
2022-08-26T15:32:27.772Z,28.94
2022-08-26T15:34:56.666Z,28.93
2022-08-26T15:37:25.526Z,28.89
2022-08-26T15:39:54.281Z,28.86
2022-08-26T15:42:23.651Z,28.84
2022-08-26T15:44:52.707Z,28.82
2022-08-26T15:47:22.575Z,28.80
2022-08-26T15:49:51.579Z,28.77
2022-08-26T15:52:21.879Z,28.75
2022-08-26T15:54:50.591Z,28.72
2022-08-26T15:57:20.024Z,28.68
2022-08-26T15:59:49.192Z,28.66
2022-08-26T16:02:18.930Z,28.62
2022-08-26T16:04:47.807Z,28.59
2022-08-26T16:07:16.873Z,28.56
2022-08-26T16:09:45.904Z,28.54
2022-08-26T16:12:25.742Z,28.50
2022-08-26T16:14:54.336Z,28.47
2022-08-26T16:17:23.155Z,28.44
2022-08-26T16:19:52.140Z,28.41
2022-08-26T16:22:20.677Z,28.39
2022-08-26T16:24:50.592Z,28.36
2022-08-26T16:27:19.443Z,28.32
2022-08-26T16:29:51.721Z,28.28
2022-08-26T16:32:20.329Z,28.24
2022-08-26T16:34:56.097Z,28.20
2022-08-26T16:37:26.577Z,28.16
2022-08-26T16:39:55.509Z,28.12
2022-08-26T16:42:24.404Z,28.08
2022-08-26T16:44:53.926Z,28.04
2022-08-26T16:47:23.788Z,28.00
2022-08-26T16:49:52.741Z,27.96
2022-08-26T16:52:21.663Z,27.92
2022-08-26T16:54:53.948Z,27.87
2022-08-26T16:57:23.343Z,27.82
2022-08-26T16:59:52.081Z,27.77
2022-08-26T17:02:31.017Z,27.72
2022-08-26T17:05:21.550Z,27.66
2022-08-26T17:08:10.051Z,27.59
2022-08-26T17:10:58.184Z,27.52
2022-08-26T17:13:44.782Z,27.44
2022-08-26T17:16:35.678Z,27.36
2022-08-26T17:19:26.560Z,27.28
2022-08-26T17:22:16.019Z,27.21
2022-08-26T17:25:06.586Z,27.12
2022-08-26T17:30:45.478Z,26.98
2022-08-26T17:33:42.988Z,26.90
2022-08-26T17:36:31.766Z,26.83
2022-08-26T17:39:09.342Z,26.76
2022-08-26T17:41:40.282Z,26.70
2022-08-26T17:44:09.416Z,26.64
2022-08-26T17:46:38.619Z,26.57
2022-08-26T17:49:07.843Z,26.52
2022-08-26T17:51:37.062Z,26.47
2022-08-26T17:54:05.746Z,26.42
2022-08-26T17:56:37.252Z,26.37
2022-08-26T17:59:06.238Z,26.32
2022-08-26T18:01:36.051Z,26.27
2022-08-26T18:04:05.129Z,26.19
2022-08-26T18:06:35.371Z,26.14
2022-08-26T18:09:04.217Z,26.08
2022-08-26T18:11:34.200Z,26.00
2022-08-26T18:14:02.698Z,25.91
2022-08-26T18:16:34.551Z,25.81
2022-08-26T18:19:03.778Z,25.67
2022-08-26T18:21:33.079Z,25.54
2022-08-26T18:24:01.783Z,25.45
2022-08-26T18:26:33.898Z,25.38
2022-08-26T18:29:03.703Z,25.33
2022-08-26T18:31:33.380Z,25.35
2022-08-26T18:34:03.081Z,25.33
2022-08-26T18:36:35.723Z,25.27
2022-08-26T18:39:05.891Z,25.23
2022-08-26T18:41:50.928Z,25.17
2022-08-26T18:44:23.578Z,25.14
2022-08-26T18:46:53.018Z,25.09
2022-08-26T18:49:22.221Z,25.05
2022-08-26T18:51:52.638Z,25.00
2022-08-26T18:54:22.224Z,24.98
2022-08-26T18:56:51.007Z,24.97
2022-08-26T18:59:19.638Z,24.95
2022-08-26T19:01:56.361Z,24.94
2022-08-26T19:04:25.124Z,24.89
2022-08-26T19:06:56.281Z,24.86
2022-08-26T19:09:27.277Z,24.86
2022-08-26T19:14:30.704Z,24.91
2022-08-26T19:17:01.442Z,24.92
2022-08-26T19:19:30.633Z,24.89
2022-08-26T19:21:59.608Z,24.84
2022-08-26T19:24:29.121Z,24.80
2022-08-26T19:27:00.044Z,24.82
2022-08-26T19:29:33.065Z,24.81
2022-08-26T19:32:03.131Z,24.80
2022-08-26T19:34:32.138Z,24.77
2022-08-26T19:37:01.059Z,24.75
2022-08-26T19:39:30.131Z,24.73
2022-08-26T19:42:00.660Z,24.68
2022-08-26T19:44:48.403Z,24.63
2022-08-26T19:47:17.362Z,24.57
2022-08-26T19:49:46.482Z,24.52
2022-08-26T19:52:15.594Z,24.49
2022-08-26T19:54:44.970Z,24.48
2022-08-26T19:57:13.558Z,24.46
2022-08-26T19:59:42.958Z,24.40
2022-08-26T20:02:12.416Z,24.34
2022-08-26T20:04:42.189Z,24.17
2022-08-26T20:07:14.233Z,23.98
2022-08-26T20:09:48.451Z,23.92
2022-08-26T20:12:18.287Z,23.94
2022-08-26T20:14:47.187Z,23.95
2022-08-26T20:17:18.929Z,23.98
2022-08-26T20:20:06.676Z,24.02
2022-08-26T20:22:56.567Z,24.04
2022-08-26T20:25:25.919Z,24.05
2022-08-26T20:27:54.480Z,24.00
2022-08-26T20:30:23.934Z,23.90
2022-08-26T20:32:53.116Z,23.86
2022-08-26T20:35:21.843Z,23.87
2022-08-26T20:37:51.058Z,23.83
2022-08-26T20:40:21.941Z,23.79
2022-08-26T20:42:50.574Z,23.79
2022-08-26T20:45:19.908Z,23.77
2022-08-26T20:47:48.706Z,23.72
2022-08-26T20:50:17.411Z,23.67
2022-08-26T20:52:46.794Z,23.63
2022-08-26T20:55:16.126Z,23.59
2022-08-26T20:57:44.691Z,23.53
2022-08-26T21:00:16.510Z,23.48
2022-08-26T21:02:46.655Z,23.44
2022-08-26T21:05:15.582Z,23.43
2022-08-26T21:07:44.717Z,23.47
2022-08-26T21:10:14.399Z,23.52
2022-08-26T21:12:43.263Z,23.49
2022-08-26T21:15:12.594Z,23.43
2022-08-26T21:17:41.740Z,23.36
2022-08-26T21:20:10.924Z,23.35
2022-08-26T21:22:39.887Z,23.36
2022-08-26T21:25:09.167Z,23.36
2022-08-26T21:27:38.425Z,23.33
2022-08-26T21:30:08.109Z,23.32
2022-08-26T21:32:36.832Z,23.31
2022-08-26T21:35:06.120Z,23.29
2022-08-26T21:37:35.499Z,23.28
2022-08-26T21:40:05.776Z,23.21
2022-08-26T21:42:35.843Z,23.12
2022-08-26T21:45:05.858Z,23.07
2022-08-26T21:47:34.609Z,22.99
2022-08-26T21:50:03.818Z,22.97
2022-08-26T21:52:32.793Z,22.96
2022-08-26T21:55:02.898Z,22.90
2022-08-26T21:57:33.598Z,22.73
2022-08-26T22:00:04.647Z,22.70
2022-08-26T22:02:35.519Z,22.73
2022-08-26T22:05:04.737Z,22.73
2022-08-26T22:07:33.578Z,22.65
2022-08-26T22:10:02.865Z,22.58
2022-08-26T22:12:32.168Z,22.57
2022-08-26T22:15:01.065Z,22.61
2022-08-26T22:17:30.321Z,22.65
2022-08-26T22:19:59.710Z,22.72
2022-08-26T22:22:29.512Z,22.75
2022-08-26T22:24:58.978Z,22.79
2022-08-26T22:27:27.767Z,22.79
2022-08-26T22:29:56.399Z,22.79
2022-08-26T22:32:25.182Z,22.80
2022-08-26T22:34:54.282Z,22.81
2022-08-26T22:37:23.600Z,22.82
2022-08-26T22:39:52.734Z,22.82
2022-08-26T22:42:21.532Z,22.80
2022-08-26T22:44:50.226Z,22.77
2022-08-26T22:47:19.635Z,22.75
2022-08-26T22:49:48.545Z,22.70
2022-08-26T22:52:17.032Z,22.66
2022-08-26T22:54:46.189Z,22.65
2022-08-26T22:57:15.248Z,22.61
2022-08-26T22:59:44.168Z,22.58
2022-08-26T23:02:13.530Z,22.57
2022-08-26T23:04:42.651Z,22.54
2022-08-26T23:07:11.575Z,22.53
2022-08-26T23:09:40.407Z,22.56
2022-08-26T23:12:10.209Z,22.56
2022-08-26T23:14:40.779Z,22.51
2022-08-26T23:17:12.053Z,22.45
2022-08-26T23:19:41.425Z,22.44
2022-08-26T23:22:10.469Z,22.45
2022-08-26T23:24:42.547Z,22.41
2022-08-26T23:27:11.250Z,22.39
2022-08-26T23:29:40.245Z,22.37
2022-08-26T23:32:09.711Z,22.34
2022-08-26T23:34:57.128Z,22.34
2022-08-26T23:37:28.365Z,22.35
2022-08-26T23:39:59.703Z,22.35
2022-08-26T23:42:28.980Z,22.31
2022-08-26T23:44:58.444Z,22.28
2022-08-26T23:47:27.741Z,22.24
2022-08-26T23:49:56.434Z,22.23
2022-08-26T23:52:44.451Z,22.20
2022-08-26T23:55:14.446Z,22.20
2022-08-26T23:57:43.063Z,22.17
